Time;durP1;ratioP1;P1;durP2;ratioP2;P2;SDS_P1;SDS_P2;PMS_P1;PMS_P2;Temp;Humidity;BMP_temperature;BMP_pressure;BME280_temperature;BME280_humidity;BME280_pressure;Samples;Min_cycle;Max_cycle;Signal;HPM_P1;HPM_P2
2023/01/02 00:01:17;;;;;;;31.90;18.08;;;;;;;9.30;100.00;100981.34;10536645;28;20039;-74
2023/01/02 00:06:18;;;;;;;32.38;18.70;;;;;;;9.30;100.00;100975.84;10522938;28;20101;-78
2023/01/02 00:11:18;;;;;;;40.25;21.48;;;;;;;9.34;100.00;100960.53;10531556;28;20479;-79
2023/01/02 00:16:19;;;;;;;42.00;21.85;;;;;;;9.39;100.00;100957.91;10523352;28;20036;-78
2023/01/02 00:21:19;;;;;;;44.38;22.27;;;;;;;9.43;100.00;100945.34;10524851;28;20044;-78
2023/01/02 00:26:20;;;;;;;41.72;25.73;;;;;;;9.34;100.00;100915.75;10537372;28;20051;-77
2023/01/02 00:31:20;;;;;;;51.40;28.10;;;;;;;9.52;100.00;100932.03;10518812;28;20040;-78
2023/01/02 00:36:21;;;;;;;60.03;29.13;;;;;;;9.50;100.00;100924.03;10522408;28;20051;-78
2023/01/02 00:41:21;;;;;;;46.35;26.17;;;;;;;9.56;100.00;100915.91;10522551;28;20085;-77
2023/01/02 00:46:22;;;;;;;55.90;27.95;;;;;;;9.59;100.00;100918.16;10519053;28;20040;-78
2023/01/02 00:51:22;;;;;;;59.72;28.52;;;;;;;9.62;100.00;100901.19;10559211;28;20048;-77
2023/01/02 00:56:23;;;;;;;53.58;28.63;;;;;;;9.63;100.00;100903.69;10582144;28;20039;-78
2023/01/02 01:01:23;;;;;;;61.33;29.88;;;;;;;9.65;100.00;100878.66;10579071;28;20036;-78
2023/01/02 01:06:24;;;;;;;63.15;29.55;;;;;;;9.65;100.00;100881.41;10581006;28;20040;-78
2023/01/02 01:11:24;;;;;;;62.00;29.50;;;;;;;9.65;100.00;100874.03;10579203;27;20036;-78
2023/01/02 01:16:25;;;;;;;64.15;31.70;;;;;;;9.66;100.00;100863.88;10587274;27;20032;-77
2023/01/02 01:21:25;;;;;;;67.65;32.65;;;;;;;9.69;100.00;100855.09;10588038;27;20044;-77
2023/01/02 01:26:26;;;;;;;70.68;32.60;;;;;;;9.70;100.00;100854.03;10570039;28;20118;-79
2023/01/02 01:31:26;;;;;;;68.25;33.80;;;;;;;9.70;100.00;100848.53;10568860;27;20085;-78
2023/01/02 01:36:27;;;;;;;80.55;35.63;;;;;;;9.72;100.00;100835.38;10556150;27;20043;-80
2023/01/02 01:41:27;;;;;;;70.35;36.47;;;;;;;9.72;100.00;100840.88;10557356;27;20065;-78
2023/01/02 01:46:35;;;;;;;71.43;38.75;;;;;;;9.78;100.00;100848.13;10586379;27;20063;-79
2023/01/02 01:51:50;;;;;;;81.70;40.85;;;;;;;9.80;100.00;100839.63;10574313;27;20109;-77
2023/01/02 01:56:53;;;;;;;76.10;40.03;;;;;;;9.85;100.00;100848.78;10542721;28;20070;-77
2023/01/02 02:01:53;;;;;;;67.53;38.10;;;;;;;9.90;100.00;100843.38;10542987;28;20040;-81
2023/01/02 02:06:54;;;;;;;72.60;39.05;;;;;;;9.97;100.00;100842.38;10560484;28;20032;-79
2023/01/02 02:11:54;;;;;;;72.07;39.10;;;;;;;10.01;100.00;100843.53;10525350;28;20066;-77
2023/01/02 02:17:04;;;;;;;64.32;37.63;;;;;;;10.08;100.00;100844.19;10508561;28;20042;-78
2023/01/02 02:22:29;;;;;;;62.38;37.90;;;;;;;10.13;100.00;100837.91;10543240;28;20044;-77
2023/01/02 02:27:35;;;;;;;61.75;35.55;;;;;;;10.14;100.00;100832.16;10524802;28;20065;-78
2023/01/02 02:32:49;;;;;;;60.28;34.15;;;;;;;10.19;100.00;100818.50;10558730;28;20114;-78
2023/01/02 02:38:00;;;;;;;53.03;32.58;;;;;;;10.21;100.00;100799.81;10542478;28;20044;-79
2023/01/02 02:43:13;;;;;;;52.53;32.42;;;;;;;10.23;100.00;100803.16;10541773;27;20067;-81
2023/01/02 02:48:24;;;;;;;45.92;28.63;;;;;;;10.24;100.00;100793.81;10564856;27;20050;-81
2023/01/02 02:53:26;;;;;;;45.15;27.35;;;;;;;10.30;100.00;100794.75;10540630;27;20062;-78
2023/01/02 02:58:27;;;;;;;45.55;27.38;;;;;;;10.24;100.00;100787.47;10539773;28;20036;-80
2023/01/02 03:03:27;;;;;;;50.85;26.63;;;;;;;10.34;100.00;100787.66;10530944;28;20043;-79
2023/01/02 03:08:34;;;;;;;49.15;28.75;;;;;;;10.34;100.00;100786.81;10540097;28;20024;-80
2023/01/02 03:13:53;;;;;;;43.58;26.80;;;;;;;10.34;100.00;100801.41;10507957;28;20040;-81
2023/01/02 03:19:06;;;;;;;34.97;24.23;;;;;;;10.35;100.00;100802.22;10517647;28;20040;-83
2023/01/02 03:24:08;;;;;;;42.85;24.40;;;;;;;10.38;100.00;100793.47;10540200;28;20040;-82
2023/01/02 03:29:12;;;;;;;39.15;22.90;;;;;;;10.39;100.00;100789.63;10539009;28;20044;-82
2023/01/02 03:34:14;;;;;;;37.95;22.40;;;;;;;10.32;100.00;100772.47;10539278;28;20065;-81
2023/01/02 03:39:16;;;;;;;40.05;22.15;;;;;;;10.44;100.00;100784.19;10522137;28;20043;-80
2023/01/02 03:44:16;;;;;;;32.03;20.95;;;;;;;10.43;100.00;100796.28;10577306;28;20113;-80
2023/01/02 03:49:31;;;;;;;32.72;19.75;;;;;;;10.41;100.00;100790.19;10580489;28;20054;-80
2023/01/02 03:54:32;;;;;;;29.73;20.33;;;;;;;10.51;100.00;100801.34;10580948;28;20035;-81
2023/01/02 03:59:59;;;;;;;33.70;19.17;;;;;;;10.54;100.00;100792.56;10580553;28;20494;-81
2023/01/02 04:05:10;;;;;;;36.42;20.38;;;;;;;10.50;100.00;100784.00;10547451;28;20038;-81
2023/01/02 04:10:12;;;;;;;31.00;20.80;;;;;;;10.54;100.00;100788.97;10543138;28;20107;-81
2023/01/02 04:15:13;;;;;;;36.17;20.13;;;;;;;10.53;100.00;100785.41;10538100;28;20082;-83
2023/01/02 04:20:19;;;;;;;27.50;20.00;;;;;;;10.52;100.00;100783.72;10505241;28;20051;-84
2023/01/02 04:25:20;;;;;;;;;;;;;;;10.52;100.00;100783.72;10538814;28;20051;-84
2023/01/02 04:30:20;;;;;;;33.33;20.10;;;;;;;10.50;100.00;100783.19;10537800;28;19983;-83
2023/01/02 04:35:21;;;;;;;30.65;20.27;;;;;;;10.50;100.00;100774.91;10520937;28;20043;-82
2023/01/02 04:40:29;;;;;;;35.38;19.52;;;;;;;10.49;100.00;100778.75;10537215;28;20036;-81
2023/01/02 04:45:29;;;;;;;36.80;20.05;;;;;;;10.50;100.00;100783.19;10538191;28;20064;-79
2023/01/02 04:50:30;;;;;;;28.92;20.50;;;;;;;10.49;100.00;100781.50;10527304;28;20424;-81
2023/01/02 04:55:30;;;;;;;29.70;19.48;;;;;;;10.53;100.00;100779.06;10545574;28;20575;-88
2023/01/02 05:00:31;;;;;;;33.90;20.50;;;;;;;10.55;100.00;100783.22;10545944;28;20036;-81
2023/01/02 05:05:31;;;;;;;30.73;19.95;;;;;;;10.53;100.00;100768.06;10527285;28;20039;-81
2023/01/02 05:10:32;;;;;;;33.30;19.00;;;;;;;10.61;100.00;100781.38;10576980;27;20039;-81
2023/01/02 05:15:32;;;;;;;29.92;19.42;;;;;;;10.63;100.00;100760.75;10588980;27;20032;-83
2023/01/02 05:20:33;;;;;;;29.55;19.80;;;;;;;10.71;100.00;100764.97;10586621;27;20039;-74
2023/01/02 05:25:34;;;;;;;24.55;19.48;;;;;;;10.77;100.00;100774.09;10569348;27;20040;-83
2023/01/02 05:30:37;;;;;;;28.20;18.48;;;;;;;10.79;100.00;100781.03;10587876;27;20036;-83
2023/01/02 05:35:37;;;;;;;22.90;17.88;;;;;;;10.84;100.00;100777.50;10585614;27;20030;-82
2023/01/02 05:40:38;;;;;;;27.30;19.13;;;;;;;10.77;100.00;100763.09;10585758;28;20039;-83
2023/01/02 05:45:38;;;;;;;23.20;17.98;;;;;;;10.90;100.00;100784.75;10545459;28;20036;-82
2023/01/02 05:50:38;;;;;;;26.88;18.13;;;;;;;10.90;100.00;100785.56;10545125;28;20036;-82
2023/01/02 05:55:39;;;;;;;29.70;17.85;;;;;;;10.92;100.00;100787.25;10543405;28;20484;-82
2023/01/02 06:00:39;;;;;;;28.98;18.33;;;;;;;10.96;100.00;100794.72;10546825;28;20511;-81
2023/01/02 06:05:40;;;;;;;26.08;18.00;;;;;;;10.98;100.00;100791.72;10586725;27;20411;-83
2023/01/02 06:10:48;;;;;;;35.42;17.73;;;;;;;11.00;100.00;100781.28;10583641;27;20491;-81
2023/01/02 06:15:49;;;;;;;26.83;17.30;;;;;;;10.99;100.00;100777.66;10584870;27;20040;-82
2023/01/02 06:20:49;;;;;;;25.20;18.17;;;;;;;10.96;100.00;100772.69;10586126;27;20036;-80
2023/01/02 06:25:50;;;;;;;25.85;17.33;;;;;;;10.88;100.00;100765.72;10584929;27;20109;-81
2023/01/02 06:30:50;;;;;;;25.25;16.98;;;;;;;10.96;100.00;100783.69;10586585;27;20070;-81
2023/01/02 06:36:01;;;;;;;22.75;17.73;;;;;;;11.00;100.00;100793.13;10566278;27;20039;-82
2023/01/02 06:41:02;;;;;;;24.50;17.63;;;;;;;11.03;100.00;100800.03;10582795;27;20036;-78
2023/01/02 06:46:03;;;;;;;25.05;17.80;;;;;;;11.01;100.00;100781.00;10585440;27;20039;-77
2023/01/02 06:51:05;;;;;;;26.20;19.17;;;;;;;11.03;100.00;100784.31;10566338;27;20051;-77
2023/01/02 06:56:06;;;;;;;24.90;19.38;;;;;;;10.99;100.00;100793.38;10567243;27;20066;-78
2023/01/02 07:01:08;;;;;;;28.45;18.40;;;;;;;10.98;100.00;100788.97;10566735;27;20045;-77
2023/01/02 07:06:11;;;;;;;24.70;17.20;;;;;;;11.01;100.00;100808.53;10582705;27;20065;-76
2023/01/02 07:11:13;;;;;;;16.05;14.35;;;;;;;11.02;100.00;100796.44;10562488;27;20037;-76
2023/01/02 07:16:14;;;;;;;18.25;15.82;;;;;;;11.02;100.00;100798.38;10539492;27;20043;-76
2023/01/02 07:21:15;;;;;;;24.65;17.88;;;;;;;10.99;100.00;100799.69;10541625;28;20103;-76
2023/01/02 07:26:15;;;;;;;23.25;17.63;;;;;;;11.00;100.00;100811.56;10540632;28;20047;-77
2023/01/02 07:31:17;;;;;;;25.48;18.35;;;;;;;10.97;100.00;100834.13;10541235;28;20052;-75
2023/01/02 07:36:18;;;;;;;16.92;15.35;;;;;;;10.94;100.00;100851.16;10556815;28;20034;-75
2023/01/02 07:41:20;;;;;;;16.73;13.60;;;;;;;10.86;100.00;100878.06;10522775;28;20086;-75
2023/01/02 07:46:20;;;;;;;14.10;13.00;;;;;;;10.61;100.00;100873.06;10557842;27;20089;-77
2023/01/02 07:51:21;;;;;;;13.15;12.13;;;;;;;10.56;100.00;100925.28;10521535;28;20614;-75
2023/01/02 07:56:22;;;;;;;12.40;11.35;;;;;;;10.45;100.00;100915.22;10539908;28;20235;-74
2023/01/02 08:01:22;;;;;;;12.73;11.82;;;;;;;10.23;100.00;100940.72;10540751;28;20034;-74
2023/01/02 08:06:23;;;;;;;12.65;11.55;;;;;;;10.21;100.00;100953.91;10505165;28;20036;-74
2023/01/02 08:11:23;;;;;;;14.43;13.30;;;;;;;9.67;100.00;100969.97;10558984;27;20050;-74
2023/01/02 08:16:24;;;;;;;13.18;12.25;;;;;;;9.13;100.00;100975.78;10581734;27;20043;-74
2023/01/02 08:21:24;;;;;;;12.85;11.93;;;;;;;8.83;100.00;101015.22;10583218;27;20084;-70
2023/01/02 08:26:25;;;;;;;12.40;11.40;;;;;;;8.75;100.00;101040.28;10556078;28;20073;-74
2023/01/02 08:31:25;;;;;;;13.43;12.23;;;;;;;8.67;100.00;101051.63;10529548;28;20048;-75
2023/01/02 08:36:26;;;;;;;13.10;12.40;;;;;;;8.37;100.00;101065.38;10513284;28;20036;-74
2023/01/02 08:41:35;;;;;;;12.55;11.85;;;;;;;8.18;100.00;101083.81;10499020;28;20054;-75
2023/01/02 08:46:35;;;;;;;14.18;13.27;;;;;;;8.05;100.00;101112.25;10547897;28;20115;-75
2023/01/02 08:51:36;;;;;;;13.70;12.50;;;;;;;7.99;100.00;101126.88;10545234;28;20482;-75
2023/01/02 08:56:37;;;;;;;12.75;11.65;;;;;;;7.96;100.00;101141.03;10512241;28;20032;-75
2023/01/02 09:01:37;;;;;;;13.55;12.38;;;;;;;7.94;100.00;101165.97;10539913;27;20047;-75
2023/01/02 09:06:38;;;;;;;13.25;12.15;;;;;;;7.86;100.00;101186.28;10570344;27;20065;-76
2023/01/02 09:11:44;;;;;;;13.05;12.00;;;;;;;7.77;100.00;101187.69;10551793;27;20040;-76
2023/01/02 09:16:44;;;;;;;12.57;11.35;;;;;;;7.79;100.00;101212.97;10536016;27;20039;-76
2023/01/02 09:21:45;;;;;;;12.38;11.57;;;;;;;7.81;100.00;101227.28;10570780;27;20490;-77
2023/01/02 09:26:45;;;;;;;11.60;10.80;;;;;;;7.86;100.00;101235.63;10553009;27;20055;-76
2023/01/02 09:31:46;;;;;;;12.23;11.32;;;;;;;7.87;100.00;101253.78;10585657;27;20032;-76
2023/01/02 09:36:46;;;;;;;12.05;11.35;;;;;;;7.83;100.00;101269.00;10585158;27;20027;-75
2023/01/02 09:41:54;;;;;;;12.65;11.85;;;;;;;7.81;100.00;101286.72;10557981;28;20044;-78
2023/01/02 09:47:09;;;;;;;12.82;11.82;;;;;;;7.82;100.00;101282.94;10553031;27;20039;-78
2023/01/02 09:52:17;;;;;;;12.13;11.23;;;;;;;7.77;100.00;101283.63;10585751;28;20062;-79
2023/01/02 09:57:17;;;;;;;12.82;11.73;;;;;;;7.78;100.00;101309.13;10568354;27;20035;-76
2023/01/02 10:02:55;;;;;;;11.82;11.13;;;;;;;7.82;100.00;101327.63;10586039;27;20043;-78
2023/01/02 10:08:17;;;;;;;11.70;10.80;;;;;;;7.84;100.00;101341.94;10566925;27;20103;-77
2023/01/02 10:13:34;;;;;;;11.95;10.95;;;;;;;7.95;100.00;101347.75;10578914;27;20047;-77
2023/01/02 10:18:35;;;;;;;11.30;10.50;;;;;;;7.87;100.00;101352.47;10565862;27;20068;-76
2023/01/02 10:23:44;;;;;;;11.55;10.68;;;;;;;7.93;100.00;101349.88;10567102;27;20039;-78
2023/01/02 10:28:57;;;;;;;10.60;9.85;;;;;;;8.01;100.00;101369.63;10566877;28;20114;-77
2023/01/02 10:34:01;;;;;;;11.48;10.55;;;;;;;8.11;100.00;101358.13;10577293;27;20040;-77
2023/01/02 10:39:13;;;;;;;30.48;25.45;;;;;;;8.15;100.00;101353.06;10544579;27;20031;-77
2023/01/02 10:44:30;;;;;;;30.95;25.30;;;;;;;8.16;100.00;101354.72;10504595;27;20039;-78
2023/01/02 10:49:30;;;;;;;20.77;17.70;;;;;;;8.05;100.00;101370.00;10544129;27;20027;-77
2023/01/02 10:54:46;;;;;;;12.73;11.63;;;;;;;7.99;100.00;101358.03;10542702;27;20087;-76
2023/01/02 10:59:46;;;;;;;18.27;16.58;;;;;;;7.87;100.00;101359.84;10527726;28;20023;-76
2023/01/02 11:04:50;;;;;;;15.32;13.88;;;;;;;7.83;100.00;101384.13;10528970;28;20526;-77
2023/01/02 11:09:54;;;;;;;18.33;16.52;;;;;;;7.80;100.00;101379.09;10525808;28;20032;-78
2023/01/02 11:15:09;;;;;;;23.17;20.73;;;;;;;7.85;100.00;101392.09;10489341;28;20028;-75
2023/01/02 11:20:35;;;;;;;18.05;16.08;;;;;;;7.79;100.00;101393.88;10506192;28;20073;-78
2023/01/02 11:25:39;;;;;;;15.32;13.43;;;;;;;7.91;100.00;101391.22;10510781;28;20043;-78
2023/01/02 11:30:46;;;;;;;30.05;20.65;;;;;;;7.91;100.00;101385.72;10508504;27;20042;-76
2023/01/02 11:35:51;;;;;;;55.83;41.00;;;;;;;8.03;100.00;101394.91;10543454;27;20028;-78
2023/01/02 11:40:56;;;;;;;25.05;21.80;;;;;;;8.07;100.00;101390.66;10546742;27;20052;-78
2023/01/02 11:45:57;;;;;;;10.98;10.18;;;;;;;8.08;100.00;101388.75;10563663;28;20036;-78
2023/01/02 11:50:57;;;;;;;15.43;12.02;;;;;;;7.71;100.00;101354.91;10538653;28;20529;-79
2023/01/02 11:56:07;;;;;;;25.02;18.20;;;;;;;8.02;100.00;101406.09;10539391;28;20099;-77
2023/01/02 12:01:19;;;;;;;16.92;15.30;;;;;;;8.09;100.00;101417.84;10563488;28;20044;-79
2023/01/02 12:06:21;;;;;;;14.80;13.23;;;;;;;8.17;100.00;101431.28;10580481;28;20082;-81
2023/01/02 12:11:47;;;;;;;11.55;9.52;;;;;;;8.14;100.00;101426.25;10551107;28;20036;-80
2023/01/02 12:16:48;;;;;;;13.73;9.10;;;;;;;8.19;100.00;101448.38;10520579;28;20094;-82
2023/01/02 12:22:27;;;;;;;7.85;7.03;;;;;;;7.15;100.00;101268.94;10540317;28;20498;-79
2023/01/02 12:27:35;;;;;;;11.13;7.75;;;;;;;8.49;100.00;101447.69;10521004;28;20060;-82
2023/01/02 12:32:51;;;;;;;7.45;5.22;;;;;;;8.56;100.00;101464.94;10520762;28;20055;-75
2023/01/02 12:37:55;;;;;;;7.43;4.97;;;;;;;8.49;100.00;101469.63;10521190;28;20028;-82
2023/01/02 12:43:33;;;;;;;6.28;5.53;;;;;;;8.43;100.00;101476.88;10553819;28;20060;-82
2023/01/02 12:49:11;;;;;;;8.57;6.05;;;;;;;8.34;100.00;101474.63;10574976;28;20043;-84
2023/01/02 12:54:32;;;;;;;9.35;5.60;;;;;;;8.23;100.00;101466.06;10579415;28;20031;-85
2023/01/02 12:59:44;;;;;;;7.80;5.55;;;;;;;8.22;100.00;101475.31;10578217;28;20081;-86
2023/01/02 13:04:47;;;;;;;8.55;6.07;;;;;;;8.23;100.00;101479.78;10576611;28;20036;-83
2023/01/02 13:09:49;;;;;;;7.47;6.65;;;;;;;8.18;100.00;101485.06;10527464;27;20028;-85
2023/01/02 13:15:01;;;;;;;11.90;9.23;;;;;;;8.22;100.00;101483.56;10515188;27;20039;-82
2023/01/02 13:20:19;;;;;;;16.77;10.23;;;;;;;8.29;100.00;101494.50;10529582;27;20043;-83
2023/01/02 13:25:20;;;;;;;9.68;5.82;;;;;;;8.32;100.00;101493.22;10573053;28;20042;-81
2023/01/02 13:30:33;;;;;;;12.30;5.85;;;;;;;8.31;100.00;101503.34;10514900;27;20043;-86
2023/01/02 13:35:35;;;;;;;9.55;5.68;;;;;;;8.35;100.00;101490.00;10578302;27;20048;-84
2023/01/02 13:40:36;;;;;;;9.18;5.85;;;;;;;8.34;100.00;101513.03;10521496;27;20052;-86
2023/01/02 13:45:42;;;;;;;16.88;7.38;;;;;;;8.36;100.00;101491.69;10544020;27;20100;-83
2023/01/02 13:50:43;;;;;;;10.40;7.40;;;;;;;8.39;100.00;101485.75;10576530;27;21021;-83
2023/01/02 13:56:07;;;;;;;15.90;6.40;;;;;;;8.43;100.00;101489.75;10545601;27;20072;-83
2023/01/02 14:01:40;;;;;;;14.10;7.00;;;;;;;8.47;100.00;101493.72;10544817;27;20043;-83
2023/01/02 14:06:42;;;;;;;10.25;6.70;;;;;;;8.39;100.00;101474.75;10532748;27;20036;-83
2023/01/02 14:11:58;;;;;;;12.70;6.80;;;;;;;8.50;100.00;101501.53;10513642;28;20044;-84
2023/01/02 14:17:36;;;;;;;14.70;6.93;;;;;;;8.48;100.00;101509.13;10520115;27;20044;-82
2023/01/02 14:22:43;;;;;;;15.95;6.40;;;;;;;8.49;100.00;101538.25;10581384;27;20040;-82
2023/01/02 14:27:53;;;;;;;9.48;5.93;;;;;;;8.38;100.00;101538.94;10569904;27;20093;-80
2023/01/02 14:32:53;;;;;;;14.05;6.20;;;;;;;8.42;100.00;101542.97;10510659;27;20036;-85
2023/01/02 14:37:54;;;;;;;15.20;5.60;;;;;;;8.47;100.00;101563.19;10528013;27;20032;-85
2023/01/02 14:48:29;;;;;;;13.15;5.97;;;;;;;8.52;100.00;101562.50;10579383;27;20714;-83
2023/01/02 14:53:36;;;;;;;16.33;6.07;;;;;;;8.45;100.00;101576.28;10550491;27;20039;-82
2023/01/02 14:58:39;;;;;;;18.13;5.68;;;;;;;8.40;100.00;101575.25;10527395;28;20112;-82
2023/01/02 15:04:02;;;;;;;12.43;5.70;;;;;;;8.40;100.00;101576.06;10574989;27;20070;-86
2023/01/02 15:09:05;;;;;;;21.27;5.60;;;;;;;8.35;100.00;101577.78;10583406;27;20035;-87
2023/01/02 15:14:08;;;;;;;17.42;6.13;;;;;;;8.38;100.00;101599.31;10543473;27;20036;-82
2023/01/02 15:19:14;;;;;;;13.27;6.15;;;;;;;8.31;100.00;101593.88;10544101;28;20042;-84
2023/01/02 15:24:17;;;;;;;18.27;6.15;;;;;;;8.26;100.00;101586.28;10564804;28;20071;-84
2023/01/02 15:29:25;;;;;;;14.05;5.90;;;;;;;8.29;100.00;101604.22;10538416;27;20043;-83
2023/01/02 15:34:28;;;;;;;14.75;6.10;;;;;;;8.18;100.00;101608.50;10547875;27;20046;-85
2023/01/02 15:39:39;;;;;;;16.70;8.02;;;;;;;8.20;100.00;101628.31;10565338;28;20031;-86
2023/01/02 15:50:10;;;;;;;13.45;5.05;;;;;;;8.17;100.00;101642.50;10583967;27;20038;-84
2023/01/02 15:55:13;;;;;;;14.77;5.47;;;;;;;8.19;100.00;101648.59;10504805;28;20488;-83
2023/01/02 16:00:36;;;;;;;13.77;5.10;;;;;;;8.08;100.00;101643.78;10547492;28;20043;-83
2023/01/02 16:05:48;;;;;;;13.45;6.50;;;;;;;8.16;100.00;101672.88;10563559;27;20035;-74
2023/01/02 16:10:49;;;;;;;10.35;6.45;;;;;;;8.08;100.00;101673.94;10543073;28;20043;-84
2023/01/02 16:15:49;;;;;;;15.77;8.48;;;;;;;8.15;100.00;101687.66;10549573;28;20036;-83
2023/01/02 16:20:50;;;;;;;19.08;9.65;;;;;;;8.12;100.00;101691.66;10519636;28;20044;-84
2023/01/02 16:25:50;;;;;;;19.63;8.98;;;;;;;8.01;100.00;101709.63;10537359;28;20060;-84
2023/01/02 16:31:08;;;;;;;16.38;7.30;;;;;;;7.84;100.00;101695.56;10498069;28;20051;-83
2023/01/02 16:36:19;;;;;;;14.65;7.90;;;;;;;7.88;100.00;101727.00;10543075;28;20044;-81
2023/01/02 16:41:40;;;;;;;19.25;8.75;;;;;;;7.87;100.00;101736.28;10510507;28;20040;-83
2023/01/02 16:46:42;;;;;;;19.00;7.32;;;;;;;7.72;100.00;101721.13;10532379;28;20039;-83
2023/01/02 16:51:44;;;;;;;24.13;8.82;;;;;;;7.81;100.00;101739.88;10517816;27;20043;-82
2023/01/02 16:56:45;;;;;;;22.50;9.38;;;;;;;7.85;100.00;101762.22;10543399;28;20054;-87
2023/01/02 17:01:45;;;;;;;19.20;8.55;;;;;;;7.83;100.00;101761.56;10587803;27;20043;-83
2023/01/02 17:06:46;;;;;;;17.38;5.78;;;;;;;7.73;100.00;101763.91;10586922;27;20038;-84
2023/01/02 17:11:58;;;;;;;12.07;4.47;;;;;;;7.62;100.00;101781.84;10568762;27;20054;-83
2023/01/02 17:16:59;;;;;;;10.93;4.20;;;;;;;7.50;100.00;101784.38;10553067;27;20059;-90
2023/01/02 17:21:59;;;;;;;22.33;5.28;;;;;;;7.44;100.00;101785.22;10542926;27;20042;-84
2023/01/02 17:27:00;;;;;;;9.40;4.70;;;;;;;7.46;100.00;101800.44;10585342;27;20031;-83
2023/01/02 17:32:00;;;;;;;8.55;4.50;;;;;;;7.38;100.00;101803.38;10567242;27;20051;-80
2023/01/02 17:37:01;;;;;;;13.05;4.90;;;;;;;7.41;100.00;101819.38;10537324;27;20032;-78
2023/01/02 17:42:01;;;;;;;11.02;4.70;;;;;;;7.32;100.00;101817.91;10554644;27;20500;-80
2023/01/02 17:47:02;;;;;;;18.80;5.95;;;;;;;7.30;100.00;101830.13;10567834;27;20399;-83
2023/01/02 17:52:02;;;;;;;10.27;5.43;;;;;;;7.25;100.00;101830.75;10567973;28;20115;-89
2023/01/02 17:57:03;;;;;;;14.95;7.28;;;;;;;7.00;100.00;101828.59;10567269;27;20036;-85
2023/01/02 18:02:03;;;;;;;12.77;5.30;;;;;;;6.84;100.00;101853.59;10559618;28;20028;-82
2023/01/02 18:07:04;;;;;;;13.43;5.80;;;;;;;6.66;100.00;101855.03;10583800;28;20039;-82
2023/01/02 18:12:05;;;;;;;11.93;5.97;;;;;;;6.50;100.00;101874.53;10583831;27;20035;-81
2023/01/02 18:17:16;;;;;;;14.20;5.70;;;;;;;6.36;100.00;101884.53;10582406;27;20062;-81
2023/01/02 18:22:20;;;;;;;21.40;7.57;;;;;;;6.23;100.00;101888.06;10600917;27;20032;-81
2023/01/02 18:27:26;;;;;;;16.30;7.22;;;;;;;6.13;100.00;101893.03;10552522;28;20039;-82
2023/01/02 18:32:34;;;;;;;10.95;7.03;;;;;;;5.98;100.00;101886.84;10582902;27;20047;-81
2023/01/02 18:37:35;;;;;;;13.85;7.18;;;;;;;5.92;100.00;101904.00;10584494;27;20036;-80
2023/01/02 18:42:35;;;;;;;21.13;7.70;;;;;;;5.45;100.00;101863.44;10565537;27;20494;-83
2023/01/02 18:47:36;;;;;;;19.05;8.25;;;;;;;5.64;100.00;101911.13;10583190;27;20062;-80
2023/01/02 18:52:36;;;;;;;17.05;8.32;;;;;;;5.65;100.00;101922.91;10559592;27;20043;-80
2023/01/02 18:57:48;;;;;;;12.70;7.70;;;;;;;5.61;100.00;101938.81;10582046;27;20593;-81
2023/01/02 19:02:54;;;;;;;14.95;7.55;;;;;;;5.53;100.00;101951.78;10546600;28;20044;-81
2023/01/02 19:08:27;;;;;;;18.42;10.52;;;;;;;5.44;100.00;101956.53;10559949;27;20036;-82
2023/01/02 19:13:32;;;;;;;27.90;13.32;;;;;;;5.39;100.00;101968.00;10534217;27;20112;-82
2023/01/02 19:18:44;;;;;;;20.92;13.88;;;;;;;5.29;100.00;101978.38;10544851;28;20060;-81
2023/01/02 19:23:58;;;;;;;19.98;13.70;;;;;;;5.17;100.00;101983.53;10559663;27;20477;-81
2023/01/02 19:29:03;;;;;;;21.55;12.65;;;;;;;5.13;100.00;101995.84;10547556;28;20491;-82
2023/01/02 19:34:15;;;;;;;22.67;11.43;;;;;;;5.03;100.00;102000.75;10580615;27;20578;-82
2023/01/02 19:39:26;;;;;;;21.65;9.57;;;;;;;4.92;100.00;102015.75;10554788;27;20095;-81
2023/01/02 19:44:26;;;;;;;19.88;10.52;;;;;;;4.77;100.00;102006.69;10570774;28;20689;-82
2023/01/02 19:49:27;;;;;;;28.42;13.52;;;;;;;4.80;100.00;102031.72;10504161;27;20431;-84
2023/01/02 19:54:27;;;;;;;25.35;14.35;;;;;;;4.71;100.00;102038.28;10495119;28;20063;-83
2023/01/02 19:59:28;;;;;;;22.98;12.88;;;;;;;4.59;100.00;102029.75;10536465;28;20028;-82
2023/01/02 20:04:29;;;;;;;19.02;10.88;;;;;;;4.63;100.00;102055.63;10502716;28;20036;-81
2023/01/02 20:09:29;;;;;;;21.75;10.55;;;;;;;4.57;100.00;102056.34;10500820;28;21429;-81
2023/01/02 20:14:30;;;;;;;20.05;11.57;;;;;;;4.48;100.00;102048.44;10514899;28;20074;-72
2023/01/02 20:19:30;;;;;;;22.20;10.65;;;;;;;4.55;100.00;102057.59;10535682;27;20054;-81
2023/01/02 20:24:31;;;;;;;21.58;10.77;;;;;;;4.68;100.00;102068.69;10517938;27;20163;-82
2023/01/02 20:29:32;;;;;;;19.75;10.57;;;;;;;4.76;100.00;102092.31;10536143;27;20032;-84
2023/01/02 20:34:32;;;;;;;22.70;10.95;;;;;;;4.75;100.00;102091.44;10534175;27;20040;-81
2023/01/02 20:39:33;;;;;;;16.85;9.05;;;;;;;4.95;100.00;102113.59;10520111;27;20062;-81
2023/01/02 20:44:33;;;;;;;15.50;7.82;;;;;;;4.99;100.00;102114.91;10529046;27;20062;-81
2023/01/02 20:49:34;;;;;;;16.10;8.52;;;;;;;4.92;100.00;102115.84;10529176;27;20044;-81
2023/01/02 20:54:34;;;;;;;14.07;7.90;;;;;;;4.95;100.00;102129.13;10507118;27;20044;-82
2023/01/02 20:59:35;;;;;;;20.95;9.10;;;;;;;4.96;100.00;102137.13;10532649;27;21546;-82
2023/01/02 21:04:35;;;;;;;14.68;9.07;;;;;;;4.81;100.00;102149.91;10574370;27;20051;-82
2023/01/02 21:09:36;;;;;;;14.02;8.27;;;;;;;4.58;100.00;102136.28;10532233;27;20044;-82
2023/01/02 21:14:36;;;;;;;14.85;9.75;;;;;;;4.59;100.00;102165.28;10542378;27;20067;-81
2023/01/02 21:19:36;;;;;;;17.08;8.93;;;;;;;4.42;100.00;102140.00;10550757;27;20059;-81
2023/01/02 21:24:37;;;;;;;15.60;8.80;;;;;;;4.41;100.00;102165.59;10534017;27;20032;-83
2023/01/02 21:29:38;;;;;;;12.77;10.02;;;;;;;4.32;100.00;102164.81;10548884;27;20061;-80
2023/01/02 21:34:39;;;;;;;10.10;8.45;;;;;;;4.27;100.00;102172.66;10521572;28;20052;-81
2023/01/02 21:39:40;;;;;;;11.07;8.27;;;;;;;4.19;100.00;102172.72;10483226;28;20043;-83
2023/01/02 21:44:40;;;;;;;20.10;9.68;;;;;;;4.22;100.00;102177.81;10536100;27;20067;-81
2023/01/02 21:49:41;;;;;;;15.05;9.57;;;;;;;4.17;100.00;102191.97;10541423;27;20039;-81
2023/01/02 21:54:41;;;;;;;14.60;9.60;;;;;;;4.16;100.00;102206.63;10583918;27;20050;-82
2023/01/02 21:59:42;;;;;;;19.65;10.60;;;;;;;4.17;100.00;102202.88;10566992;27;20040;-82
2023/01/02 22:04:42;;;;;;;21.85;13.18;;;;;;;4.33;100.00;102222.91;10551486;27;20392;-81
2023/01/02 22:09:43;;;;;;;25.85;14.63;;;;;;;4.42;100.00;102238.16;10578373;27;20084;-82
2023/01/02 22:14:43;;;;;;;18.63;13.38;;;;;;;4.51;100.00;102245.28;10580028;27;20067;-82
2023/01/02 22:19:44;;;;;;;23.63;13.05;;;;;;;4.23;100.00;102195.84;10565957;27;20043;-81
2023/01/02 22:24:45;;;;;;;24.08;14.57;;;;;;;4.58;100.00;102259.88;10582678;27;20035;-82
2023/01/02 22:29:48;;;;;;;16.52;9.77;;;;;;;4.49;100.00;102251.94;10549327;27;20091;-81
2023/01/02 22:34:48;;;;;;;21.88;8.45;;;;;;;4.58;100.00;102262.59;10582176;27;20052;-82
2023/01/02 22:39:49;;;;;;;12.50;6.90;;;;;;;4.57;100.00;102266.38;10574933;28;20515;-83
2023/01/02 22:44:49;;;;;;;12.20;6.90;;;;;;;4.41;100.00;102244.66;10563828;27;20046;-82
2023/01/02 22:49:50;;;;;;;10.00;7.00;;;;;;;4.38;100.00;102253.19;10560877;28;20054;-74
2023/01/02 22:54:50;;;;;;;13.85;7.82;;;;;;;4.41;100.00;102282.84;10561014;27;20044;-85
2023/01/02 22:59:51;;;;;;;11.63;6.40;;;;;;;4.27;100.00;102273.53;10541120;27;20534;-84